Time;durP1;ratioP1;P1;durP2;ratioP2;P2;SDS_P1;SDS_P2;PMS_P1;PMS_P2;Temp;Humidity;BMP_temperature;BMP_pressure;BME280_temperature;BME280_humidity;BME280_pressure;Samples;Min_cycle;Max_cycle;Signal;HPM_P1;HPM_P2
2022/08/03 00:00:26;;;;;;;2.40;2.20;;;23.20;56.10;;;;;;5054888;28;20489;-48
2022/08/03 00:02:52;;;;;;;3.80;2.47;;;23.10;56.10;;;;;;5057087;28;20458;-48
2022/08/03 00:05:19;;;;;;;2.50;2.30;;;23.10;56.50;;;;;;5045633;28;20469;-48
2022/08/03 00:07:46;;;;;;;3.33;3.00;;;23.00;56.50;;;;;;5058387;28;20702;-48
2022/08/03 00:10:16;;;;;;;2.10;1.83;;;22.90;56.80;;;;;;5041551;28;21004;-48
2022/08/03 00:12:42;;;;;;;2.53;2.33;;;22.90;57.00;;;;;;5056315;28;20489;-48
2022/08/03 00:15:10;;;;;;;2.87;2.53;;;22.90;57.20;;;;;;5057163;28;20484;-48
2022/08/03 00:17:43;;;;;;;4.10;2.60;;;22.80;57.30;;;;;;5061908;28;20977;-48
2022/08/03 00:20:20;;;;;;;2.70;2.50;;;22.80;57.40;;;;;;5029915;28;20469;-48
2022/08/03 00:22:48;;;;;;;3.53;2.70;;;22.80;57.60;;;;;;5052238;28;20554;-48
2022/08/03 00:25:15;;;;;;;2.60;2.40;;;22.70;57.80;;;;;;5053009;28;20458;-48
2022/08/03 00:27:42;;;;;;;2.43;2.23;;;22.70;58.10;;;;;;5058545;28;20972;-48
2022/08/03 00:30:09;;;;;;;2.73;2.53;;;22.70;58.20;;;;;;5059108;28;20515;-48
2022/08/03 00:32:36;;;;;;;2.77;2.57;;;22.70;58.20;;;;;;5058227;28;20461;-48
2022/08/03 00:35:10;;;;;;;2.87;2.43;;;22.70;58.20;;;;;;5059637;28;20465;-48
2022/08/03 00:37:57;;;;;;;3.53;2.70;;;22.70;58.40;;;;;;5056183;28;20464;-48
2022/08/03 00:40:24;;;;;;;3.30;2.60;;;22.70;58.60;;;;;;5058805;28;20954;-48
2022/08/03 00:42:54;;;;;;;3.50;2.73;;;22.70;58.60;;;;;;5042810;28;20453;-48
2022/08/03 00:45:32;;;;;;;3.07;2.63;;;22.60;58.60;;;;;;5058933;28;20454;-48
2022/08/03 00:48:00;;;;;;;3.10;2.60;;;22.60;58.80;;;;;;5057366;28;20472;-48
2022/08/03 00:50:29;;;;;;;4.30;2.97;;;22.60;58.80;;;;;;5047005;28;20461;-48
2022/08/03 00:52:58;;;;;;;3.70;2.57;;;22.60;59.00;;;;;;5056367;28;20963;-48
2022/08/03 00:55:25;;;;;;;2.50;2.30;;;22.60;59.10;;;;;;5041384;28;20468;-48
2022/08/03 00:57:52;;;;;;;3.07;2.80;;;22.60;59.20;;;;;;5061843;28;20508;-48
2022/08/03 01:00:22;;;;;;;2.93;2.73;;;22.60;59.40;;;;;;5043316;28;20453;-48
2022/08/03 01:02:50;;;;;;;2.70;2.50;;;22.60;59.40;;;;;;5055995;28;20465;-48
2022/08/03 01:05:17;;;;;;;2.83;2.63;;;22.60;59.50;;;;;;5058295;28;20466;-48
2022/08/03 01:08:05;;;;;;;2.90;2.70;;;22.50;59.40;;;;;;5044297;28;20850;-48
2022/08/03 01:10:47;;;;;;;4.03;3.10;;;22.50;59.60;;;;;;5047111;28;20955;-48
2022/08/03 01:13:43;;;;;;;2.77;2.57;;;22.50;59.70;;;;;;5056970;28;20869;-48
2022/08/03 01:16:37;;;;;;;3.10;2.73;;;22.40;59.90;;;;;;5042442;28;20450;-48
2022/08/03 01:19:22;;;;;;;3.90;3.00;;;22.40;60.20;;;;;;5040836;28;20489;-48
2022/08/03 01:22:07;;;;;;;3.77;2.90;;;22.40;60.20;;;;;;5056015;28;20869;-48
2022/08/03 01:25:09;;;;;;;3.57;3.27;;;22.40;60.20;;;;;;5076213;28;20461;-48
2022/08/03 01:27:49;;;;;;;2.90;2.30;;;22.40;60.00;;;;;;5040170;28;20487;-48
2022/08/03 01:30:15;;;;;;;3.57;2.87;;;22.30;59.80;;;;;;5044592;28;20992;-48
2022/08/03 01:32:55;;;;;;;3.63;3.33;;;22.30;59.70;;;;;;5048442;28;20461;-48
2022/08/03 01:35:37;;;;;;;3.47;3.17;;;22.30;60.00;;;;;;5059400;28;20457;-47
2022/08/03 01:38:14;;;;;;;2.90;2.70;;;22.20;60.10;;;;;;5059490;28;20471;-47
2022/08/03 01:40:43;;;;;;;3.30;3.03;;;22.20;60.40;;;;;;5049323;28;20445;-47
2022/08/03 01:43:15;;;;;;;5.57;2.90;;;22.20;60.50;;;;;;5059120;28;20961;-47
2022/08/03 01:46:03;;;;;;;2.67;2.40;;;22.20;60.50;;;;;;5057764;28;20454;-47
2022/08/03 01:48:31;;;;;;;3.40;2.77;;;22.10;60.20;;;;;;5058692;28;20469;-48
2022/08/03 01:50:58;;;;;;;4.70;3.07;;;22.00;60.20;;;;;;5046571;28;20469;-48
2022/08/03 01:53:27;;;;;;;3.30;2.80;;;22.00;60.40;;;;;;5040748;28;20460;-48
2022/08/03 01:55:55;;;;;;;3.33;2.90;;;22.00;60.50;;;;;;5059077;28;20471;-48
2022/08/03 01:58:25;;;;;;;3.20;2.90;;;21.90;60.50;;;;;;5056565;28;20500;-48
2022/08/03 02:00:56;;;;;;;4.17;3.70;;;21.90;60.70;;;;;;5052874;28;20480;-48
2022/08/03 02:03:23;;;;;;;5.27;3.00;;;21.80;61.00;;;;;;5053444;28;20454;-48
2022/08/03 02:05:54;;;;;;;6.90;3.70;;;21.80;61.20;;;;;;5056903;28;20465;-45
2022/08/03 02:08:43;;;;;;;3.30;3.00;;;21.80;61.20;;;;;;5055418;28;20457;-48
2022/08/03 02:11:11;;;;;;;3.97;2.97;;;21.80;61.20;;;;;;5033735;28;20463;-48
2022/08/03 02:13:45;;;;;;;3.50;3.20;;;21.70;61.50;;;;;;5054513;28;20808;-45
2022/08/03 02:16:13;;;;;;;3.33;2.90;;;21.70;61.80;;;;;;5044572;28;20827;-45
2022/08/03 02:18:41;;;;;;;3.20;2.90;;;21.70;61.90;;;;;;5044203;28;20461;-43
2022/08/03 02:21:10;;;;;;;3.53;3.23;;;21.70;61.80;;;;;;5043111;28;20742;-45
2022/08/03 02:23:57;;;;;;;3.27;2.97;;;21.70;61.80;;;;;;5055055;28;20458;-44
2022/08/03 02:26:29;;;;;;;3.10;2.70;;;21.70;62.10;;;;;;5058729;28;20457;-44
2022/08/03 02:29:00;;;;;;;3.50;3.20;;;21.70;62.10;;;;;;5031446;28;20453;-45
2022/08/03 02:31:31;;;;;;;3.53;3.23;;;21.70;62.10;;;;;;5055705;28;20461;-44
2022/08/03 02:34:05;;;;;;;4.47;3.47;;;21.70;62.20;;;;;;5057843;28;20453;-44
2022/08/03 02:36:36;;;;;;;4.03;3.10;;;21.70;62.10;;;;;;5055378;28;20457;-44
2022/08/03 02:39:04;;;;;;;3.77;3.47;;;21.60;62.30;;;;;;5065364;28;21081;-44
2022/08/03 02:41:42;;;;;;;3.53;3.23;;;21.60;62.50;;;;;;5057530;28;20486;-43
2022/08/03 02:44:10;;;;;;;3.60;3.30;;;21.50;62.50;;;;;;5053577;28;26518;-43
2022/08/03 02:46:41;;;;;;;3.83;3.53;;;21.50;62.40;;;;;;5055878;28;20703;-43
2022/08/03 02:49:10;;;;;;;5.10;2.83;;;21.50;62.50;;;;;;5052087;28;20933;-43
2022/08/03 02:51:59;;;;;;;4.50;3.20;;;21.40;62.60;;;;;;5054772;28;20545;-43
2022/08/03 02:54:26;;;;;;;4.63;3.03;;;21.40;62.70;;;;;;5055232;28;20463;-43
2022/08/03 02:56:57;;;;;;;3.17;2.87;;;21.40;62.70;;;;;;5041914;28;20513;-44
2022/08/03 02:59:25;;;;;;;4.17;3.47;;;21.40;62.70;;;;;;5055354;28;20464;-44
2022/08/03 03:01:53;;;;;;;4.30;3.50;;;21.40;62.80;;;;;;5055934;28;20490;-44
2022/08/03 03:04:21;;;;;;;4.10;2.87;;;21.40;62.70;;;;;;5051532;28;20461;-45
2022/08/03 03:06:52;;;;;;;3.77;3.37;;;21.40;62.70;;;;;;5058653;28;20865;-45
2022/08/03 03:09:22;;;;;;;3.97;3.67;;;21.30;62.60;;;;;;5040190;28;20461;-44
2022/08/03 03:11:50;;;;;;;7.13;4.70;;;21.40;62.80;;;;;;5055390;28;20461;-44
2022/08/03 03:14:18;;;;;;;3.57;3.23;;;21.30;62.80;;;;;;5054782;28;20947;-44
2022/08/03 03:17:01;;;;;;;3.80;3.27;;;21.30;62.80;;;;;;5055987;28;20845;-44
2022/08/03 03:19:29;;;;;;;3.40;3.20;;;21.30;62.70;;;;;;5055572;28;20453;-44
2022/08/03 03:21:59;;;;;;;4.60;3.73;;;21.30;62.60;;;;;;5051663;28;20951;-44
2022/08/03 03:24:28;;;;;;;5.03;4.53;;;21.20;62.70;;;;;;5050125;28;20492;-44
2022/08/03 03:26:56;;;;;;;4.50;3.50;;;21.20;63.00;;;;;;5055639;28;20462;-44
2022/08/03 03:29:23;;;;;;;5.30;3.93;;;21.10;63.20;;;;;;5042837;28;20673;-45
2022/08/03 03:31:50;;;;;;;3.97;3.60;;;21.10;63.50;;;;;;5055784;28;20458;-44
2022/08/03 03:34:18;;;;;;;4.00;3.70;;;21.10;63.50;;;;;;5038008;28;20462;-44
2022/08/03 03:36:44;;;;;;;5.37;3.60;;;21.00;63.60;;;;;;5053322;28;20461;-44
2022/08/03 03:39:11;;;;;;;4.40;4.00;;;21.00;63.80;;;;;;5059819;28;20492;-44
2022/08/03 03:41:42;;;;;;;4.97;4.20;;;21.00;63.90;;;;;;5059927;28;21015;-44
2022/08/03 03:44:09;;;;;;;5.77;3.80;;;21.00;64.10;;;;;;5040161;28;21103;-44
2022/08/03 03:46:37;;;;;;;4.43;3.50;;;21.00;64.20;;;;;;5038771;28;20460;-44
2022/08/03 03:49:06;;;;;;;5.30;3.90;;;21.00;64.30;;;;;;5038847;28;20462;-44
2022/08/03 03:51:33;;;;;;;3.87;3.30;;;21.00;64.50;;;;;;5052028;28;20461;-44
2022/08/03 03:54:03;;;;;;;3.93;3.63;;;21.10;64.50;;;;;;5055511;28;20828;-44
2022/08/03 03:56:30;;;;;;;3.90;3.60;;;21.10;64.50;;;;;;5040997;28;20464;-44
2022/08/03 03:58:57;;;;;;;4.53;3.40;;;21.00;64.50;;;;;;5035292;28;20472;-44
2022/08/03 04:01:24;;;;;;;4.33;3.90;;;21.00;64.60;;;;;;5036339;28;20469;-44
2022/08/03 04:03:51;;;;;;;3.83;3.53;;;21.00;64.60;;;;;;5059041;28;20454;-44
2022/08/03 04:11:57;;;;;;;5.23;3.27;;;21.00;64.80;;;;;;5057961;28;20458;-44
2022/08/03 04:14:27;;;;;;;3.67;3.37;;;21.00;64.90;;;;;;5054351;28;20465;-44
2022/08/03 04:16:58;;;;;;;4.63;4.23;;;21.00;64.90;;;;;;5041365;28;20522;-44
2022/08/03 04:19:27;;;;;;;3.90;3.60;;;21.00;65.10;;;;;;5037154;28;20467;-44
2022/08/03 04:21:59;;;;;;;4.37;4.03;;;21.00;65.10;;;;;;5056224;28;21029;-44
2022/08/03 04:24:40;;;;;;;4.50;4.10;;;21.00;65.10;;;;;;5059317;28;20469;-44
2022/08/03 04:27:11;;;;;;;4.20;3.90;;;20.90;64.90;;;;;;5073928;28;20557;-44
2022/08/03 04:29:44;;;;;;;3.97;3.57;;;21.00;65.10;;;;;;5045794;28;20456;-44
2022/08/03 04:32:16;;;;;;;4.00;3.70;;;21.00;64.90;;;;;;5057116;28;20464;-44
2022/08/03 04:34:43;;;;;;;4.13;3.83;;;21.00;64.60;;;;;;5058444;28;21017;-44
2022/08/03 04:37:16;;;;;;;6.37;3.83;;;21.00;64.20;;;;;;5061188;28;20469;-44
2022/08/03 04:39:48;;;;;;;4.10;3.70;;;21.00;64.40;;;;;;5056608;28;20474;-44
2022/08/03 04:42:15;;;;;;;4.63;4.03;;;20.90;64.60;;;;;;5060151;28;20504;-44
2022/08/03 04:44:44;;;;;;;4.30;3.90;;;20.90;64.70;;;;;;5057538;28;20454;-44
2022/08/03 04:47:11;;;;;;;6.10;4.40;;;20.90;65.10;;;;;;5045189;28;20463;-44
2022/08/03 04:49:39;;;;;;;8.13;3.43;;;20.90;65.40;;;;;;5060740;28;20817;-44
2022/08/03 04:52:09;;;;;;;4.90;3.80;;;20.80;65.40;;;;;;5058822;28;21024;-44
2022/08/03 04:54:41;;;;;;;5.73;4.40;;;20.80;65.40;;;;;;5027832;28;20472;-44
2022/08/03 04:57:14;;;;;;;4.00;3.70;;;20.80;65.40;;;;;;5052738;28;20490;-44
2022/08/03 04:59:53;;;;;;;4.20;3.80;;;20.80;65.40;;;;;;5051904;28;20469;-44
2022/08/03 05:02:27;;;;;;;3.70;3.40;;;20.90;65.60;;;;;;5054009;28;20934;-44
2022/08/03 05:04:54;;;;;;;4.57;4.17;;;20.90;65.40;;;;;;5056388;28;20464;-44
2022/08/03 05:07:20;;;;;;;4.13;3.57;;;20.90;65.40;;;;;;5034916;28;20859;-44
2022/08/03 05:09:51;;;;;;;5.10;4.30;;;20.90;65.60;;;;;;5043972;28;21010;-44
2022/08/03 05:12:27;;;;;;;6.60;3.37;;;21.00;65.40;;;;;;5054088;28;20481;-44
2022/08/03 05:14:59;;;;;;;3.97;3.60;;;21.00;65.40;;;;;;5044689;28;20542;-44
2022/08/03 05:17:27;;;;;;;4.70;4.20;;;21.00;65.30;;;;;;5055062;28;20462;-44
2022/08/03 05:19:54;;;;;;;3.80;3.50;;;21.10;65.40;;;;;;5054949;28;20468;-44
2022/08/03 05:22:22;;;;;;;3.83;3.53;;;21.10;65.50;;;;;;5050932;28;21013;-44
2022/08/03 05:24:48;;;;;;;5.00;3.80;;;21.10;65.60;;;;;;5057324;28;20461;-44
2022/08/03 05:27:18;;;;;;;4.10;3.80;;;21.20;65.60;;;;;;5031516;28;21286;-44
2022/08/03 05:29:45;;;;;;;6.57;4.10;;;21.30;65.40;;;;;;5055060;28;20513;-45
2022/08/03 05:32:12;;;;;;;5.03;3.80;;;21.30;65.20;;;;;;5055399;28;20455;-44
2022/08/03 05:34:39;;;;;;;5.50;4.00;;;21.40;64.90;;;;;;5061025;28;20481;-45
2022/08/03 05:37:06;;;;;;;4.03;3.60;;;21.40;64.90;;;;;;5059128;28;20901;-45
2022/08/03 05:39:34;;;;;;;3.87;3.57;;;21.50;64.80;;;;;;5058787;28;20536;-45
2022/08/03 05:42:01;;;;;;;3.60;3.20;;;21.50;64.60;;;;;;5054399;28;21093;-45
2022/08/03 05:44:28;;;;;;;5.80;3.30;;;21.50;64.40;;;;;;5058791;28;20830;-45
2022/08/03 05:46:56;;;;;;;4.00;3.60;;;21.60;64.20;;;;;;5056721;28;20461;-45
2022/08/03 05:49:23;;;;;;;3.50;3.30;;;21.60;64.30;;;;;;5055747;28;20570;-45
2022/08/03 05:51:50;;;;;;;4.33;3.77;;;21.70;64.10;;;;;;5058301;28;20971;-45
2022/08/03 05:54:37;;;;;;;3.93;3.33;;;21.70;63.70;;;;;;5055756;28;20543;-45
2022/08/03 05:57:24;;;;;;;3.87;3.57;;;21.80;63.70;;;;;;5044148;28;20560;-45
2022/08/03 05:59:51;;;;;;;5.00;3.97;;;21.90;63.50;;;;;;5056457;28;20873;-45
2022/08/03 06:02:27;;;;;;;4.90;3.23;;;22.00;63.30;;;;;;5042961;28;20569;-45
2022/08/03 06:04:54;;;;;;;4.50;3.40;;;22.00;63.40;;;;;;5037140;28;20450;-45
2022/08/03 06:07:20;;;;;;;6.20;3.73;;;22.10;63.30;;;;;;5055306;28;20466;-45
2022/08/03 06:09:47;;;;;;;3.60;3.30;;;22.20;63.20;;;;;;5063631;28;20465;-46
2022/08/03 06:12:37;;;;;;;6.40;3.70;;;22.20;62.80;;;;;;5060351;28;20858;-46
2022/08/03 06:15:04;;;;;;;4.77;3.80;;;22.30;62.40;;;;;;5055204;28;20473;-45
2022/08/03 06:17:33;;;;;;;4.13;3.73;;;22.40;62.10;;;;;;5045979;28;20457;-45
2022/08/03 06:20:04;;;;;;;4.87;4.40;;;22.50;62.10;;;;;;5061295;28;20529;-45
2022/08/03 06:22:31;;;;;;;6.73;3.40;;;22.60;61.60;;;;;;5056332;28;20492;-46
2022/08/03 06:24:58;;;;;;;4.37;3.90;;;22.70;61.40;;;;;;5057409;28;20454;-46
2022/08/03 06:27:32;;;;;;;3.43;3.10;;;22.70;61.50;;;;;;5057512;28;20461;-45
2022/08/03 06:30:03;;;;;;;5.13;3.17;;;22.80;61.50;;;;;;5047596;28;20457;-45
2022/08/03 06:32:30;;;;;;;4.67;3.00;;;22.90;61.00;;;;;;5054526;28;20497;-45
2022/08/03 06:35:00;;;;;;;3.60;3.00;;;23.00;60.60;;;;;;5050730;28;20465;-47
2022/08/03 06:37:29;;;;;;;3.40;2.60;;;23.20;60.20;;;;;;5070037;28;20978;-47
2022/08/03 06:39:56;;;;;;;4.77;2.90;;;23.30;60.20;;;;;;5054110;28;20465;-47
2022/08/03 06:42:23;;;;;;;3.83;3.47;;;23.40;59.90;;;;;;5055835;28;20985;-46
2022/08/03 06:44:50;;;;;;;3.17;2.97;;;23.60;59.50;;;;;;5054351;28;20456;-47
2022/08/03 06:47:17;;;;;;;5.33;3.57;;;23.70;58.90;;;;;;5047628;28;20476;-47
2022/08/03 06:49:44;;;;;;;3.00;2.70;;;23.80;58.30;;;;;;5038181;28;20483;-47
2022/08/03 06:52:31;;;;;;;6.83;3.73;;;23.90;57.90;;;;;;5079591;28;20452;-48
2022/08/03 06:55:05;;;;;;;3.60;3.30;;;24.00;57.70;;;;;;5086008;28;20457;-49
2022/08/03 06:57:31;;;;;;;3.70;3.27;;;24.10;57.60;;;;;;5067516;28;20548;-48
2022/08/03 07:00:00;;;;;;;5.03;3.97;;;24.30;57.40;;;;;;5071763;28;20475;-48
2022/08/03 07:02:38;;;;;;;4.83;3.00;;;24.40;56.90;;;;;;5071014;28;20501;-48
2022/08/03 07:05:06;;;;;;;5.17;3.73;;;24.50;56.70;;;;;;5075590;28;20470;-48
2022/08/03 07:07:33;;;;;;;4.70;3.43;;;24.60;56.40;;;;;;5083026;28;20495;-48
2022/08/03 07:10:00;;;;;;;4.57;3.03;;;24.70;56.30;;;;;;5077431;28;20457;-48
2022/08/03 07:12:29;;;;;;;3.30;3.00;;;24.80;55.90;;;;;;5065706;28;20463;-48
2022/08/03 07:14:57;;;;;;;4.53;2.90;;;24.90;55.60;;;;;;5063065;28;20461;-49
2022/08/03 07:17:33;;;;;;;4.17;3.27;;;25.00;55.40;;;;;;5081424;28;20464;-48
2022/08/03 07:20:02;;;;;;;5.10;3.60;;;25.20;55.00;;;;;;5093837;28;20458;-49
2022/08/03 07:22:29;;;;;;;4.27;3.30;;;25.40;54.70;;;;;;5086569;28;20841;-49
2022/08/03 07:24:56;;;;;;;3.30;3.00;;;25.50;54.40;;;;;;5065232;28;20472;-48
2022/08/03 07:27:25;;;;;;;4.07;3.40;;;25.70;54.00;;;;;;5081730;28;20513;-49
2022/08/03 07:29:52;;;;;;;5.00;3.90;;;25.80;53.90;;;;;;5081078;28;20450;-49
2022/08/03 07:32:18;;;;;;;4.23;3.80;;;26.00;53.70;;;;;;5064964;28;20448;-49
2022/08/03 07:34:45;;;;;;;4.27;3.50;;;26.20;52.80;;;;;;5079031;28;20525;-48
2022/08/03 07:37:12;;;;;;;3.70;3.40;;;26.30;52.60;;;;;;5061076;28;20472;-49
2022/08/03 07:39:39;;;;;;;4.80;3.40;;;26.50;52.00;;;;;;5067334;28;20456;-49
2022/08/03 07:42:05;;;;;;;3.87;3.40;;;26.60;52.20;;;;;;5077370;28;20457;-49
2022/08/03 07:44:32;;;;;;;4.50;3.37;;;26.70;52.10;;;;;;5062642;28;20891;-48
2022/08/03 07:46:59;;;;;;;4.00;2.77;;;26.90;51.70;;;;;;5070756;28;20490;-48
2022/08/03 07:49:29;;;;;;;5.43;3.40;;;27.00;51.40;;;;;;5078619;28;20463;-49
2022/08/03 07:54:41;;;;;;;4.63;3.17;;;27.30;51.00;;;;;;5084965;28;20460;-49
2022/08/03 07:57:08;;;;;;;6.13;3.80;;;27.50;50.60;;;;;;5078656;28;20477;-49
2022/08/03 07:59:36;;;;;;;3.67;3.23;;;27.60;50.40;;;;;;5078957;28;20449;-48
2022/08/03 08:02:24;;;;;;;4.87;3.13;;;27.80;49.90;;;;;;5076840;28;20471;-49
2022/08/03 08:04:50;;;;;;;2.93;2.73;;;27.90;49.50;;;;;;5076849;28;20701;-49
2022/08/03 08:07:17;;;;;;;3.83;3.40;;;28.00;48.50;;;;;;5064489;28;20195;-49
2022/08/03 08:09:46;;;;;;;8.10;4.20;;;28.20;48.40;;;;;;5077271;28;20476;-49
2022/08/03 08:12:13;;;;;;;4.50;3.23;;;28.40;48.10;;;;;;5077132;28;20204;-49
2022/08/03 08:14:44;;;;;;;3.97;3.57;;;28.60;47.70;;;;;;5064414;28;20238;-49
2022/08/03 08:17:11;;;;;;;3.30;3.00;;;28.70;47.60;;;;;;5080903;28;20214;-49
2022/08/03 08:19:38;;;;;;;3.77;3.30;;;28.90;46.90;;;;;;5065538;28;20244;-49
2022/08/03 08:22:18;;;;;;;3.13;2.93;;;29.10;46.40;;;;;;5058273;28;20226;-49
2022/08/03 08:24:55;;;;;;;4.72;3.35;;;29.30;46.40;;;;;;5076221;28;20237;-49
2022/08/03 08:27:22;;;;;;;3.50;3.20;;;29.40;46.40;;;;;;5079116;28;20207;-49
2022/08/03 08:29:49;;;;;;;5.38;2.50;;;29.60;45.60;;;;;;5082225;28;20207;-49
2022/08/03 08:32:22;;;;;;;3.00;2.67;;;29.70;45.00;;;;;;5073728;28;20213;-49
2022/08/03 08:34:48;;;;;;;4.82;2.50;;;29.80;44.50;;;;;;5062416;28;20207;-49
2022/08/03 08:37:15;;;;;;;2.65;2.45;;;30.00;44.30;;;;;;5063666;28;20290;-49
2022/08/03 08:39:42;;;;;;;3.70;3.40;;;30.10;44.30;;;;;;5075956;28;20203;-49
2022/08/03 08:42:09;;;;;;;2.72;2.53;;;30.30;44.00;;;;;;5075847;28;20223;-49
2022/08/03 08:44:36;;;;;;;7.03;2.90;;;30.40;43.50;;;;;;5078909;28;20602;-49
2022/08/03 08:47:03;;;;;;;3.63;3.10;;;30.50;43.80;;;;;;5075656;28;20199;-50
2022/08/03 08:49:34;;;;;;;3.35;2.80;;;30.60;43.70;;;;;;5063854;28;20203;-48
2022/08/03 08:52:04;;;;;;;6.28;2.85;;;30.70;43.60;;;;;;5077580;28;20226;-48
2022/08/03 08:55:02;;;;;;;2.80;2.60;;;30.80;43.40;;;;;;5081989;28;20941;-48
2022/08/03 08:57:43;;;;;;;2.70;2.50;;;30.90;42.70;;;;;;5076261;28;20726;-48
2022/08/03 09:00:14;;;;;;;3.90;2.78;;;31.10;42.70;;;;;;5061809;28;20228;-48
2022/08/03 09:02:42;;;;;;;2.90;2.70;;;31.20;42.60;;;;;;5078847;28;22164;-48
2022/08/03 09:05:14;;;;;;;3.47;2.38;;;31.30;41.70;;;;;;5076893;28;20202;-48
2022/08/03 09:07:42;;;;;;;3.20;2.88;;;31.30;41.70;;;;;;5081698;28;20210;-48
2022/08/03 09:10:10;;;;;;;3.28;2.63;;;31.40;41.30;;;;;;5083660;28;20206;-47
2022/08/03 09:12:44;;;;;;;3.20;2.90;;;31.40;41.30;;;;;;5096193;28;20204;-48
2022/08/03 09:15:20;;;;;;;3.50;2.33;;;31.50;41.00;;;;;;5080485;28;20203;-50
2022/08/03 09:17:48;;;;;;;4.28;2.85;;;31.60;40.80;;;;;;5080984;28;20203;-48
2022/08/03 09:20:18;;;;;;;4.13;2.67;;;31.60;40.50;;;;;;5078954;28;20211;-50
2022/08/03 09:23:12;;;;;;;9.63;3.28;;;31.80;40.40;;;;;;5076711;28;20213;-50
2022/08/03 09:26:00;;;;;;;5.18;2.70;;;31.90;40.60;;;;;;5095190;28;20210;-50
2022/08/03 09:28:34;;;;;;;2.97;2.75;;;32.00;40.10;;;;;;5076164;28;20211;-50
2022/08/03 09:31:38;;;;;;;4.43;2.60;;;32.10;39.70;;;;;;5073429;28;20206;-50
2022/08/03 09:34:11;;;;;;;2.88;2.67;;;32.10;39.50;;;;;;5081606;28;20208;-50
2022/08/03 09:36:38;;;;;;;4.45;2.65;;;32.20;39.50;;;;;;5079989;28;20214;-50
2022/08/03 09:39:10;;;;;;;2.88;2.67;;;32.30;39.00;;;;;;5066157;28;20282;-50
2022/08/03 09:41:38;;;;;;;3.60;3.00;;;32.40;38.70;;;;;;5065939;28;20263;-50
2022/08/03 09:44:05;;;;;;;3.92;2.30;;;32.60;38.90;;;;;;5077965;28;20239;-50
2022/08/03 09:46:47;;;;;;;2.90;2.10;;;32.70;38.80;;;;;;5080808;28;20651;-50
2022/08/03 09:49:16;;;;;;;3.60;2.47;;;32.90;37.50;;;;;;5064813;28;20233;-51
2022/08/03 09:51:44;;;;;;;3.58;2.50;;;32.90;37.20;;;;;;5063595;28;20848;-50
2022/08/03 09:54:31;;;;;;;3.08;2.78;;;33.00;37.00;;;;;;5079994;28;20271;-51
2022/08/03 09:56:58;;;;;;;6.45;1.98;;;33.10;37.10;;;;;;5072746;28;20234;-51
2022/08/03 09:59:27;;;;;;;2.58;2.38;;;33.30;36.60;;;;;;5062789;28;20210;-51
2022/08/03 10:01:55;;;;;;;2.20;2.00;;;33.40;36.40;;;;;;5074455;28;20214;-51
2022/08/03 10:04:23;;;;;;;5.03;2.88;;;33.50;36.30;;;;;;5066615;28;20225;-51
2022/08/03 10:07:09;;;;;;;2.30;2.20;;;33.70;36.20;;;;;;5093240;28;20570;-51
2022/08/03 10:09:37;;;;;;;2.45;2.30;;;33.80;35.90;;;;;;5081360;28;20534;-51
2022/08/03 10:12:11;;;;;;;2.85;2.35;;;33.90;35.40;;;;;;5084440;28;20209;-51
2022/08/03 10:14:40;;;;;;;2.70;2.50;;;34.10;35.40;;;;;;5065884;28;20421;-51
2022/08/03 10:17:08;;;;;;;3.05;2.45;;;34.20;35.50;;;;;;5071355;28;20246;-49
2022/08/03 10:19:36;;;;;;;3.17;2.55;;;34.30;35.10;;;;;;5070683;28;20671;-50
2022/08/03 10:22:09;;;;;;;3.47;2.10;;;34.30;35.00;;;;;;5077093;28;20195;-49
2022/08/03 10:24:38;;;;;;;2.58;2.38;;;34.40;34.80;;;;;;5076680;28;20223;-50
2022/08/03 10:27:12;;;;;;;4.00;2.70;;;34.50;34.50;;;;;;5076942;28;20211;-49
2022/08/03 10:29:46;;;;;;;5.03;2.38;;;34.40;34.00;;;;;;5079151;28;20234;-49
2022/08/03 10:32:27;;;;;;;4.82;2.60;;;34.30;33.90;;;;;;5055453;28;20235;-48
2022/08/03 10:35:02;;;;;;;6.35;2.55;;;34.10;34.60;;;;;;5056792;28;20211;-49
2022/08/03 10:37:58;;;;;;;3.03;2.72;;;34.00;35.10;;;;;;5073679;28;20673;-49
2022/08/03 10:40:28;;;;;;;2.55;2.35;;;33.80;35.40;;;;;;5036638;28;20606;-49
2022/08/03 10:43:35;;;;;;;2.60;2.40;;;33.80;35.50;;;;;;5056520;28;20292;-48
2022/08/03 10:46:05;;;;;;;2.60;2.38;;;33.60;35.20;;;;;;5056283;28;20207;-48
2022/08/03 10:48:34;;;;;;;2.80;2.60;;;33.50;35.40;;;;;;5044612;28;20211;-49
2022/08/03 10:51:01;;;;;;;3.50;2.60;;;33.30;35.70;;;;;;5053882;28;20203;-54
2022/08/03 10:53:36;;;;;;;4.38;2.72;;;33.20;36.10;;;;;;5055484;28;20218;-49
2022/08/03 10:59:09;;;;;;;2.83;2.63;;;33.10;36.10;;;;;;5058815;28;20222;-49
2022/08/03 11:01:54;;;;;;;3.10;2.80;;;32.90;36.40;;;;;;5058314;28;20231;-49
2022/08/03 11:04:28;;;;;;;2.47;2.28;;;32.80;36.10;;;;;;5054436;28;20227;-49
2022/08/03 11:07:21;;;;;;;3.28;2.97;;;32.70;36.10;;;;;;5038187;28;20260;-49
2022/08/03 11:09:53;;;;;;;3.13;2.70;;;32.60;36.60;;;;;;5045946;28;20203;-48
2022/08/03 11:12:24;;;;;;;3.15;2.95;;;32.50;36.50;;;;;;5061623;28;20210;-49
2022/08/03 11:15:04;;;;;;;2.40;2.30;;;32.50;36.60;;;;;;5044630;28;20215;-49
2022/08/03 11:17:32;;;;;;;3.25;3.00;;;32.40;36.70;;;;;;5043888;28;20225;-49
2022/08/03 11:20:12;;;;;;;2.80;2.60;;;32.30;36.40;;;;;;5046118;28;20210;-49
2022/08/03 11:22:53;;;;;;;3.50;2.17;;;32.30;36.40;;;;;;5073247;28;20210;-48
2022/08/03 11:25:20;;;;;;;2.97;2.67;;;32.30;36.70;;;;;;5059460;28;20230;-49
2022/08/03 11:28:29;;;;;;;2.63;2.38;;;32.30;36.50;;;;;;5051722;28;20233;-49
2022/08/03 11:31:16;;;;;;;2.97;2.67;;;32.30;36.50;;;;;;5059122;28;20239;-49
2022/08/03 11:34:08;;;;;;;3.50;1.90;;;32.30;36.80;;;;;;5049275;28;20207;-49
2022/08/03 11:37:12;;;;;;;2.45;2.13;;;32.30;36.60;;;;;;5058705;28;20203;-49
2022/08/03 11:39:45;;;;;;;4.05;2.17;;;32.20;36.50;;;;;;5075564;28;20202;-49
2022/08/03 11:42:25;;;;;;;2.60;2.40;;;32.20;36.80;;;;;;5060587;28;20219;-49
2022/08/03 11:44:59;;;;;;;2.38;2.17;;;32.20;36.50;;;;;;5058630;28;20226;-49
2022/08/03 11:47:28;;;;;;;3.15;2.72;;;32.20;36.80;;;;;;5054751;28;20216;-49
2022/08/03 11:49:57;;;;;;;3.33;3.03;;;32.00;36.50;;;;;;5056429;28;20209;-49
2022/08/03 11:52:25;;;;;;;2.08;1.88;;;31.90;37.10;;;;;;5055496;28;20218;-49
2022/08/03 11:54:54;;;;;;;2.22;2.13;;;31.90;37.20;;;;;;5056400;28;20233;-49
2022/08/03 11:57:31;;;;;;;2.08;1.95;;;31.90;37.20;;;;;;5054679;28;20242;-49
2022/08/03 12:00:29;;;;;;;2.53;2.33;;;32.00;37.20;;;;;;5041888;28;20213;-49
2022/08/03 12:02:58;;;;;;;2.30;2.10;;;31.90;37.00;;;;;;5052803;28;20203;-49
2022/08/03 12:05:52;;;;;;;3.50;2.40;;;31.90;37.20;;;;;;5055944;28;20254;-49
2022/08/03 12:08:26;;;;;;;4.07;2.20;;;31.90;37.40;;;;;;5037242;28;20226;-49
2022/08/03 12:10:54;;;;;;;4.00;2.65;;;31.90;37.60;;;;;;5054920;28;20572;-49
2022/08/03 12:13:22;;;;;;;2.80;2.58;;;31.90;38.00;;;;;;5054841;28;20207;-49
2022/08/03 12:16:09;;;;;;;2.28;2.13;;;31.90;37.70;;;;;;5042778;28;20214;-49
2022/08/03 12:18:36;;;;;;;3.28;2.10;;;31.90;37.40;;;;;;5044676;28;20207;-49
2022/08/03 12:21:07;;;;;;;2.45;2.25;;;31.90;37.30;;;;;;5038420;28;20211;-49
2022/08/03 12:23:35;;;;;;;2.75;2.22;;;31.90;37.70;;;;;;5058410;28;20207;-49
2022/08/03 12:26:08;;;;;;;3.85;2.80;;;31.90;37.40;;;;;;5051953;28;20660;-49
2022/08/03 12:28:36;;;;;;;2.65;2.28;;;31.90;37.50;;;;;;5077224;28;20207;-49
2022/08/03 12:31:06;;;;;;;2.60;2.40;;;31.90;37.60;;;;;;5058652;28;20797;-49
2022/08/03 12:33:57;;;;;;;2.63;2.42;;;31.90;37.60;;;;;;5060724;28;20635;-49
2022/08/03 12:36:26;;;;;;;2.83;2.65;;;32.00;37.60;;;;;;5050025;28;20272;-49
2022/08/03 12:38:58;;;;;;;3.90;2.30;;;32.00;37.60;;;;;;5049871;28;20269;-49
2022/08/03 12:41:37;;;;;;;4.40;2.72;;;32.00;37.40;;;;;;5063526;28;20202;-49
2022/08/03 12:44:06;;;;;;;4.85;2.60;;;32.00;37.70;;;;;;5037397;28;20219;-49
2022/08/03 12:46:35;;;;;;;2.70;2.50;;;32.00;37.80;;;;;;5041788;28;20218;-49
2022/08/03 12:49:02;;;;;;;2.85;2.45;;;32.00;37.30;;;;;;5054080;28;20200;-49
2022/08/03 12:51:31;;;;;;;2.67;2.17;;;32.10;37.30;;;;;;5072678;28;20643;-49
2022/08/03 12:53:59;;;;;;;2.08;1.98;;;32.10;36.80;;;;;;5035734;28;20216;-49
2022/08/03 12:56:26;;;;;;;1.95;1.85;;;32.20;37.60;;;;;;5052705;28;20206;-49
2022/08/03 12:58:52;;;;;;;2.00;1.90;;;32.20;37.40;;;;;;5059350;28;20684;-49
2022/08/03 13:01:22;;;;;;;2.17;1.98;;;32.20;37.20;;;;;;5060844;28;20212;-49
2022/08/03 13:03:52;;;;;;;4.93;2.78;;;32.20;37.60;;;;;;5056949;28;20230;-49
2022/08/03 13:06:22;;;;;;;4.60;2.28;;;32.20;37.90;;;;;;5059133;28;20210;-49
2022/08/03 13:09:00;;;;;;;3.78;2.20;;;32.20;37.70;;;;;;5059571;28;20585;-49
2022/08/03 13:11:27;;;;;;;2.88;2.58;;;32.20;37.40;;;;;;5061220;28;20194;-49
2022/08/03 13:14:14;;;;;;;2.53;2.33;;;32.20;37.40;;;;;;5058194;28;20219;-49
2022/08/03 13:16:46;;;;;;;3.70;2.20;;;32.20;37.30;;;;;;5059934;28;20214;-49
2022/08/03 13:19:13;;;;;;;2.72;1.95;;;32.30;37.80;;;;;;5061894;28;20627;-49
2022/08/03 13:21:42;;;;;;;2.63;2.30;;;32.40;37.10;;;;;;5057202;28;20207;-49
2022/08/03 13:24:30;;;;;;;5.65;2.30;;;32.40;36.80;;;;;;5056268;28;20254;-49